sensor_id;sensor_type;location;lat;lon;timestamp;P1;durP1;ratioP1;P2;durP2;ratioP2
19343;SDS011;9808;52.402;16.678;2022-09-13T00:00:49;14.50;;;9.00;;
19343;SDS011;9808;52.402;16.678;2022-09-13T00:03:17;16.83;;;9.70;;
19343;SDS011;9808;52.402;16.678;2022-09-13T00:05:45;14.83;;;9.70;;
19343;SDS011;9808;52.402;16.678;2022-09-13T00:08:13;15.23;;;9.00;;
19343;SDS011;9808;52.402;16.678;2022-09-13T00:10:40;14.77;;;9.70;;
19343;SDS011;9808;52.402;16.678;2022-09-13T00:13:09;14.27;;;8.70;;
19343;SDS011;9808;52.402;16.678;2022-09-13T00:15:41;14.30;;;9.00;;
19343;SDS011;9808;52.402;16.678;2022-09-13T00:18:13;13.23;;;8.77;;
19343;SDS011;9808;52.402;16.678;2022-09-13T00:20:40;14.30;;;8.77;;
19343;SDS011;9808;52.402;16.678;2022-09-13T00:23:07;13.53;;;8.90;;
19343;SDS011;9808;52.402;16.678;2022-09-13T00:25:34;13.17;;;9.13;;
19343;SDS011;9808;52.402;16.678;2022-09-13T00:28:02;13.87;;;9.43;;
19343;SDS011;9808;52.402;16.678;2022-09-13T00:30:29;17.13;;;8.83;;
19343;SDS011;9808;52.402;16.678;2022-09-13T00:32:57;14.43;;;8.67;;
19343;SDS011;9808;52.402;16.678;2022-09-13T00:35:23;14.60;;;9.40;;
19343;SDS011;9808;52.402;16.678;2022-09-13T00:37:50;15.83;;;9.70;;
19343;SDS011;9808;52.402;16.678;2022-09-13T00:40:17;18.90;;;10.17;;
19343;SDS011;9808;52.402;16.678;2022-09-13T00:42:45;13.70;;;9.27;;
19343;SDS011;9808;52.402;16.678;2022-09-13T00:45:16;16.60;;;9.40;;
19343;SDS011;9808;52.402;16.678;2022-09-13T00:47:46;14.00;;;9.50;;
19343;SDS011;9808;52.402;16.678;2022-09-13T00:53:04;15.47;;;9.90;;
19343;SDS011;9808;52.402;16.678;2022-09-13T00:58:09;14.87;;;9.67;;
19343;SDS011;9808;52.402;16.678;2022-09-13T01:00:42;15.43;;;9.63;;
19343;SDS011;9808;52.402;16.678;2022-09-13T01:03:10;15.30;;;10.40;;
19343;SDS011;9808;52.402;16.678;2022-09-13T01:05:43;15.37;;;10.10;;
19343;SDS011;9808;52.402;16.678;2022-09-13T01:08:17;17.20;;;10.63;;
19343;SDS011;9808;52.402;16.678;2022-09-13T01:10:49;17.37;;;10.47;;
19343;SDS011;9808;52.402;16.678;2022-09-13T01:13:18;16.80;;;11.10;;
19343;SDS011;9808;52.402;16.678;2022-09-13T01:15:48;16.47;;;10.23;;
19343;SDS011;9808;52.402;16.678;2022-09-13T01:18:15;16.20;;;9.83;;
19343;SDS011;9808;52.402;16.678;2022-09-13T01:20:55;12.93;;;8.90;;
19343;SDS011;9808;52.402;16.678;2022-09-13T01:35:42;16.90;;;10.07;;
19343;SDS011;9808;52.402;16.678;2022-09-13T01:47:36;16.90;;;11.00;;
19343;SDS011;9808;52.402;16.678;2022-09-13T01:52:58;14.77;;;10.27;;
19343;SDS011;9808;52.402;16.678;2022-09-13T01:58:23;16.37;;;11.00;;
19343;SDS011;9808;52.402;16.678;2022-09-13T02:01:54;14.93;;;10.17;;
19343;SDS011;9808;52.402;16.678;2022-09-13T02:04:10;14.13;;;9.37;;
19343;SDS011;9808;52.402;16.678;2022-09-13T02:07:04;20.03;;;10.73;;
19343;SDS011;9808;52.402;16.678;2022-09-13T02:09:39;15.97;;;10.10;;
19343;SDS011;9808;52.402;16.678;2022-09-13T02:12:13;14.03;;;9.60;;
19343;SDS011;9808;52.402;16.678;2022-09-13T02:14:47;16.50;;;9.87;;
19343;SDS011;9808;52.402;16.678;2022-09-13T02:17:27;17.10;;;10.43;;
19343;SDS011;9808;52.402;16.678;2022-09-13T02:20:04;15.40;;;10.50;;
19343;SDS011;9808;52.402;16.678;2022-09-13T02:22:38;15.50;;;9.67;;
19343;SDS011;9808;52.402;16.678;2022-09-13T02:25:11;15.07;;;10.20;;
19343;SDS011;9808;52.402;16.678;2022-09-13T02:27:45;16.67;;;10.40;;
19343;SDS011;9808;52.402;16.678;2022-09-13T02:30:14;14.27;;;9.53;;
19343;SDS011;9808;52.402;16.678;2022-09-13T02:32:56;14.53;;;9.70;;
19343;SDS011;9808;52.402;16.678;2022-09-13T02:35:32;16.07;;;10.73;;
19343;SDS011;9808;52.402;16.678;2022-09-13T02:38:14;17.03;;;10.23;;
19343;SDS011;9808;52.402;16.678;2022-09-13T02:40:46;14.87;;;9.90;;
19343;SDS011;9808;52.402;16.678;2022-09-13T02:43:24;18.93;;;11.30;;
19343;SDS011;9808;52.402;16.678;2022-09-13T02:54:31;17.50;;;11.13;;
19343;SDS011;9808;52.402;16.678;2022-09-13T02:57:31;16.33;;;10.57;;
19343;SDS011;9808;52.402;16.678;2022-09-13T03:00:28;16.10;;;10.57;;
19343;SDS011;9808;52.402;16.678;2022-09-13T03:02:55;15.53;;;10.50;;
19343;SDS011;9808;52.402;16.678;2022-09-13T03:05:23;14.60;;;10.27;;
19343;SDS011;9808;52.402;16.678;2022-09-13T03:07:50;14.13;;;10.00;;
19343;SDS011;9808;52.402;16.678;2022-09-13T03:10:17;15.13;;;10.53;;
19343;SDS011;9808;52.402;16.678;2022-09-13T03:13:01;18.40;;;11.53;;
19343;SDS011;9808;52.402;16.678;2022-09-13T03:15:44;16.67;;;10.67;;
19343;SDS011;9808;52.402;16.678;2022-09-13T03:29:10;21.13;;;11.23;;
19343;SDS011;9808;52.402;16.678;2022-09-13T03:34:19;15.27;;;10.13;;
19343;SDS011;9808;52.402;16.678;2022-09-13T03:37:14;16.23;;;10.63;;
19343;SDS011;9808;52.402;16.678;2022-09-13T03:40:06;15.63;;;10.13;;
19343;SDS011;9808;52.402;16.678;2022-09-13T03:42:45;16.83;;;11.77;;
19343;SDS011;9808;52.402;16.678;2022-09-13T03:45:27;16.57;;;11.00;;
19343;SDS011;9808;52.402;16.678;2022-09-13T03:47:58;16.37;;;10.37;;
19343;SDS011;9808;52.402;16.678;2022-09-13T03:50:25;14.60;;;10.40;;
19343;SDS011;9808;52.402;16.678;2022-09-13T03:52:55;17.33;;;11.27;;
19343;SDS011;9808;52.402;16.678;2022-09-13T03:55:26;17.10;;;11.10;;
19343;SDS011;9808;52.402;16.678;2022-09-13T03:57:54;18.67;;;10.87;;
19343;SDS011;9808;52.402;16.678;2022-09-13T04:00:20;16.97;;;11.43;;
19343;SDS011;9808;52.402;16.678;2022-09-13T04:02:47;16.70;;;11.37;;
19343;SDS011;9808;52.402;16.678;2022-09-13T04:05:14;17.70;;;11.50;;
19343;SDS011;9808;52.402;16.678;2022-09-13T04:07:41;17.03;;;10.77;;
19343;SDS011;9808;52.402;16.678;2022-09-13T04:10:08;17.50;;;11.03;;
19343;SDS011;9808;52.402;16.678;2022-09-13T04:12:39;18.43;;;11.87;;
19343;SDS011;9808;52.402;16.678;2022-09-13T04:15:06;17.63;;;11.17;;
19343;SDS011;9808;52.402;16.678;2022-09-13T04:17:34;17.50;;;11.77;;
19343;SDS011;9808;52.402;16.678;2022-09-13T04:20:01;17.23;;;12.13;;
19343;SDS011;9808;52.402;16.678;2022-09-13T04:22:29;17.87;;;11.37;;
19343;SDS011;9808;52.402;16.678;2022-09-13T04:24:56;19.67;;;11.63;;
19343;SDS011;9808;52.402;16.678;2022-09-13T04:27:27;17.57;;;11.60;;
19343;SDS011;9808;52.402;16.678;2022-09-13T04:29:54;17.20;;;10.87;;
19343;SDS011;9808;52.402;16.678;2022-09-13T04:32:21;19.20;;;10.93;;
19343;SDS011;9808;52.402;16.678;2022-09-13T04:34:48;18.43;;;11.47;;
19343;SDS011;9808;52.402;16.678;2022-09-13T04:37:14;18.03;;;12.13;;
19343;SDS011;9808;52.402;16.678;2022-09-13T04:39:41;17.30;;;11.50;;
19343;SDS011;9808;52.402;16.678;2022-09-13T04:42:08;19.60;;;11.00;;
19343;SDS011;9808;52.402;16.678;2022-09-13T04:44:36;19.47;;;12.80;;
19343;SDS011;9808;52.402;16.678;2022-09-13T04:47:03;17.80;;;12.30;;
19343;SDS011;9808;52.402;16.678;2022-09-13T04:49:31;18.77;;;12.47;;
19343;SDS011;9808;52.402;16.678;2022-09-13T04:51:59;17.07;;;12.03;;
19343;SDS011;9808;52.402;16.678;2022-09-13T04:54:25;21.17;;;13.23;;
19343;SDS011;9808;52.402;16.678;2022-09-13T04:56:52;18.33;;;12.13;;
19343;SDS011;9808;52.402;16.678;2022-09-13T04:59:20;17.67;;;11.80;;
19343;SDS011;9808;52.402;16.678;2022-09-13T05:01:46;19.70;;;13.23;;
19343;SDS011;9808;52.402;16.678;2022-09-13T05:04:13;20.40;;;13.77;;
19343;SDS011;9808;52.402;16.678;2022-09-13T05:06:40;18.83;;;13.43;;
19343;SDS011;9808;52.402;16.678;2022-09-13T05:09:09;24.67;;;14.27;;
19343;SDS011;9808;52.402;16.678;2022-09-13T05:11:39;24.23;;;15.07;;
19343;SDS011;9808;52.402;16.678;2022-09-13T05:14:08;23.57;;;15.27;;
19343;SDS011;9808;52.402;16.678;2022-09-13T05:16:36;22.03;;;14.60;;
19343;SDS011;9808;52.402;16.678;2022-09-13T05:19:03;21.90;;;14.00;;
19343;SDS011;9808;52.402;16.678;2022-09-13T05:21:29;22.10;;;14.97;;
19343;SDS011;9808;52.402;16.678;2022-09-13T05:23:57;22.37;;;15.33;;
19343;SDS011;9808;52.402;16.678;2022-09-13T05:26:24;23.97;;;15.13;;
19343;SDS011;9808;52.402;16.678;2022-09-13T05:28:54;22.50;;;15.60;;
19343;SDS011;9808;52.402;16.678;2022-09-13T05:31:22;28.40;;;17.07;;
19343;SDS011;9808;52.402;16.678;2022-09-13T05:33:52;24.20;;;17.03;;
19343;SDS011;9808;52.402;16.678;2022-09-13T05:36:24;23.50;;;16.90;;
19343;SDS011;9808;52.402;16.678;2022-09-13T05:38:52;24.97;;;17.57;;
19343;SDS011;9808;52.402;16.678;2022-09-13T05:41:39;26.57;;;17.47;;
19343;SDS011;9808;52.402;16.678;2022-09-13T05:44:06;27.47;;;17.90;;
19343;SDS011;9808;52.402;16.678;2022-09-13T05:46:38;25.00;;;18.20;;
19343;SDS011;9808;52.402;16.678;2022-09-13T05:49:06;32.23;;;19.07;;
19343;SDS011;9808;52.402;16.678;2022-09-13T05:51:33;28.77;;;18.63;;
19343;SDS011;9808;52.402;16.678;2022-09-13T05:54:00;29.27;;;20.03;;
19343;SDS011;9808;52.402;16.678;2022-09-13T05:56:27;28.07;;;19.13;;
19343;SDS011;9808;52.402;16.678;2022-09-13T05:58:55;32.63;;;19.63;;
19343;SDS011;9808;52.402;16.678;2022-09-13T06:01:23;27.83;;;19.13;;
19343;SDS011;9808;52.402;16.678;2022-09-13T06:03:52;31.00;;;19.93;;
19343;SDS011;9808;52.402;16.678;2022-09-13T06:06:23;31.50;;;20.17;;
19343;SDS011;9808;52.402;16.678;2022-09-13T06:08:51;33.83;;;21.33;;
19343;SDS011;9808;52.402;16.678;2022-09-13T06:11:23;31.47;;;20.07;;
19343;SDS011;9808;52.402;16.678;2022-09-13T06:13:51;32.80;;;21.33;;
19343;SDS011;9808;52.402;16.678;2022-09-13T06:16:18;33.30;;;21.73;;
19343;SDS011;9808;52.402;16.678;2022-09-13T06:18:46;36.10;;;20.50;;
19343;SDS011;9808;52.402;16.678;2022-09-13T06:21:15;34.93;;;22.67;;
19343;SDS011;9808;52.402;16.678;2022-09-13T06:23:52;32.33;;;22.20;;
19343;SDS011;9808;52.402;16.678;2022-09-13T06:26:23;38.57;;;22.93;;
19343;SDS011;9808;52.402;16.678;2022-09-13T06:28:52;34.67;;;22.67;;
19343;SDS011;9808;52.402;16.678;2022-09-13T06:31:21;34.63;;;22.03;;
19343;SDS011;9808;52.402;16.678;2022-09-13T06:33:53;35.57;;;22.33;;
19343;SDS011;9808;52.402;16.678;2022-09-13T06:36:22;32.57;;;21.57;;
19343;SDS011;9808;52.402;16.678;2022-09-13T06:38:49;31.83;;;21.43;;
19343;SDS011;9808;52.402;16.678;2022-09-13T06:41:18;26.97;;;19.83;;
19343;SDS011;9808;52.402;16.678;2022-09-13T06:43:52;24.60;;;18.80;;
19343;SDS011;9808;52.402;16.678;2022-09-13T06:46:23;26.57;;;18.17;;
19343;SDS011;9808;52.402;16.678;2022-09-13T06:48:52;23.13;;;17.40;;
19343;SDS011;9808;52.402;16.678;2022-09-13T06:51:23;25.60;;;16.90;;
19343;SDS011;9808;52.402;16.678;2022-09-13T06:53:50;24.50;;;17.00;;
19343;SDS011;9808;52.402;16.678;2022-09-13T06:56:20;24.67;;;16.10;;
19343;SDS011;9808;52.402;16.678;2022-09-13T06:58:53;21.27;;;15.75;;
19343;SDS011;9808;52.402;16.678;2022-09-13T07:01:23;29.02;;;15.32;;
19343;SDS011;9808;52.402;16.678;2022-09-13T07:03:52;21.80;;;15.30;;
19343;SDS011;9808;52.402;16.678;2022-09-13T07:06:24;23.00;;;15.07;;
19343;SDS011;9808;52.402;16.678;2022-09-13T07:08:52;20.63;;;14.57;;
19343;SDS011;9808;52.402;16.678;2022-09-13T07:11:23;21.83;;;15.93;;
19343;SDS011;9808;52.402;16.678;2022-09-13T07:13:53;21.40;;;15.95;;
19343;SDS011;9808;52.402;16.678;2022-09-13T07:16:22;25.33;;;16.70;;
19343;SDS011;9808;52.402;16.678;2022-09-13T07:18:50;27.90;;;15.05;;
19343;SDS011;9808;52.402;16.678;2022-09-13T07:21:18;21.73;;;14.80;;
19343;SDS011;9808;52.402;16.678;2022-09-13T07:23:46;23.30;;;14.38;;
19343;SDS011;9808;52.402;16.678;2022-09-13T07:26:13;23.35;;;14.25;;
19343;SDS011;9808;52.402;16.678;2022-09-13T07:28:41;16.95;;;12.93;;
19343;SDS011;9808;52.402;16.678;2022-09-13T07:31:11;20.40;;;13.82;;
19343;SDS011;9808;52.402;16.678;2022-09-13T07:33:43;19.48;;;13.45;;
19343;SDS011;9808;52.402;16.678;2022-09-13T07:36:10;19.48;;;13.00;;
19343;SDS011;9808;52.402;16.678;2022-09-13T07:38:39;18.50;;;13.52;;
19343;SDS011;9808;52.402;16.678;2022-09-13T07:41:12;19.33;;;12.80;;
19343;SDS011;9808;52.402;16.678;2022-09-13T07:43:40;17.45;;;11.50;;
19343;SDS011;9808;52.402;16.678;2022-09-13T07:46:08;17.95;;;11.23;;
19343;SDS011;9808;52.402;16.678;2022-09-13T07:48:38;18.58;;;11.85;;
19343;SDS011;9808;52.402;16.678;2022-09-13T07:51:07;16.20;;;10.80;;
19343;SDS011;9808;52.402;16.678;2022-09-13T07:53:37;20.85;;;10.73;;
19343;SDS011;9808;52.402;16.678;2022-09-13T07:58:33;17.08;;;11.45;;
19343;SDS011;9808;52.402;16.678;2022-09-13T08:03:40;19.42;;;10.68;;
19343;SDS011;9808;52.402;16.678;2022-09-13T08:06:08;17.35;;;10.52;;
19343;SDS011;9808;52.402;16.678;2022-09-13T08:08:35;14.70;;;9.80;;
19343;SDS011;9808;52.402;16.678;2022-09-13T08:11:03;15.00;;;9.48;;
19343;SDS011;9808;52.402;16.678;2022-09-13T08:13:32;15.98;;;10.27;;
19343;SDS011;9808;52.402;16.678;2022-09-13T08:16:02;16.02;;;9.05;;
19343;SDS011;9808;52.402;16.678;2022-09-13T08:18:31;13.98;;;8.93;;
19343;SDS011;9808;52.402;16.678;2022-09-13T08:20:59;13.05;;;9.02;;
19343;SDS011;9808;52.402;16.678;2022-09-13T08:23:26;13.02;;;9.32;;
19343;SDS011;9808;52.402;16.678;2022-09-13T08:25:53;12.77;;;8.52;;
19343;SDS011;9808;52.402;16.678;2022-09-13T08:28:20;12.73;;;9.02;;
19343;SDS011;9808;52.402;16.678;2022-09-13T08:30:52;12.40;;;8.63;;
19343;SDS011;9808;52.402;16.678;2022-09-13T08:33:19;17.80;;;7.88;;
19343;SDS011;9808;52.402;16.678;2022-09-13T08:35:50;10.80;;;7.82;;
19343;SDS011;9808;52.402;16.678;2022-09-13T08:38:18;11.68;;;7.63;;
19343;SDS011;9808;52.402;16.678;2022-09-13T08:41:49;14.48;;;7.57;;
19343;SDS011;9808;52.402;16.678;2022-09-13T08:43:58;14.25;;;7.65;;
19343;SDS011;9808;52.402;16.678;2022-09-13T08:46:36;12.80;;;7.50;;
19343;SDS011;9808;52.402;16.678;2022-09-13T08:49:11;14.60;;;7.72;;
19343;SDS011;9808;52.402;16.678;2022-09-13T08:51:44;15.63;;;7.30;;
19343;SDS011;9808;52.402;16.678;2022-09-13T08:54:23;12.07;;;7.72;;
19343;SDS011;9808;52.402;16.678;2022-09-13T08:56:51;14.45;;;7.75;;
19343;SDS011;9808;52.402;16.678;2022-09-13T09:02:34;11.98;;;7.68;;
19343;SDS011;9808;52.402;16.678;2022-09-13T09:05:30;11.85;;;6.97;;
19343;SDS011;9808;52.402;16.678;2022-09-13T09:08:05;12.18;;;7.75;;
19343;SDS011;9808;52.402;16.678;2022-09-13T09:13:12;12.73;;;7.78;;
19343;SDS011;9808;52.402;16.678;2022-09-13T09:16:18;10.70;;;7.43;;
19343;SDS011;9808;52.402;16.678;2022-09-13T09:19:19;12.65;;;8.15;;
19343;SDS011;9808;52.402;16.678;2022-09-13T09:22:16;11.05;;;7.63;;
19343;SDS011;9808;52.402;16.678;2022-09-13T09:24:46;15.88;;;7.95;;
19343;SDS011;9808;52.402;16.678;2022-09-13T09:27:17;13.55;;;8.00;;
19343;SDS011;9808;52.402;16.678;2022-09-13T09:29:49;14.50;;;7.97;;
19343;SDS011;9808;52.402;16.678;2022-09-13T09:37:43;15.70;;;8.23;;
19343;SDS011;9808;52.402;16.678;2022-09-13T09:40:16;13.38;;;7.63;;
19343;SDS011;9808;52.402;16.678;2022-09-13T09:42:46;12.00;;;7.47;;
19343;SDS011;9808;52.402;16.678;2022-09-13T09:48:03;12.55;;;7.75;;
19343;SDS011;9808;52.402;16.678;2022-09-13T09:50:35;13.98;;;8.25;;
19343;SDS011;9808;52.402;16.678;2022-09-13T09:53:13;10.27;;;7.55;;
19343;SDS011;9808;52.402;16.678;2022-09-13T09:56:05;14.18;;;7.50;;
19343;SDS011;9808;52.402;16.678;2022-09-13T09:58:46;10.98;;;7.22;;
19343;SDS011;9808;52.402;16.678;2022-09-13T10:01:20;11.23;;;6.80;;
19343;SDS011;9808;52.402;16.678;2022-09-13T10:06:36;11.50;;;7.72;;
19343;SDS011;9808;52.402;16.678;2022-09-13T10:11:50;14.32;;;7.70;;
19343;SDS011;9808;52.402;16.678;2022-09-13T10:17:13;11.43;;;6.75;;
19343;SDS011;9808;52.402;16.678;2022-09-13T10:22:27;11.52;;;7.38;;
19343;SDS011;9808;52.402;16.678;2022-09-13T10:27:57;13.90;;;7.35;;
19343;SDS011;9808;52.402;16.678;2022-09-13T10:30:39;18.15;;;7.65;;
19343;SDS011;9808;52.402;16.678;2022-09-13T10:33:17;13.05;;;6.97;;
19343;SDS011;9808;52.402;16.678;2022-09-13T10:36:09;15.50;;;6.97;;
19343;SDS011;9808;52.402;16.678;2022-09-13T10:39:04;9.73;;;6.53;;
19343;SDS011;9808;52.402;16.678;2022-09-13T10:41:46;10.38;;;6.63;;
19343;SDS011;9808;52.402;16.678;2022-09-13T10:44:24;11.57;;;6.72;;
19343;SDS011;9808;52.402;16.678;2022-09-13T10:46:58;13.02;;;6.70;;
19343;SDS011;9808;52.402;16.678;2022-09-13T10:49:51;12.15;;;6.50;;
19343;SDS011;9808;52.402;16.678;2022-09-13T10:52:23;10.65;;;6.57;;
19343;SDS011;9808;52.402;16.678;2022-09-13T10:55:51;11.85;;;6.55;;
19343;SDS011;9808;52.402;16.678;2022-09-13T10:57:48;13.93;;;7.28;;
19343;SDS011;9808;52.402;16.678;2022-09-13T11:12:32;11.27;;;7.00;;
19343;SDS011;9808;52.402;16.678;2022-09-13T11:15:20;11.32;;;7.28;;
19343;SDS011;9808;52.402;16.678;2022-09-13T11:27:01;9.45;;;6.03;;
19343;SDS011;9808;52.402;16.678;2022-09-13T11:29:39;10.75;;;6.55;;
19343;SDS011;9808;52.402;16.678;2022-09-13T11:43:49;11.65;;;7.10;;
19343;SDS011;9808;52.402;16.678;2022-09-13T11:46:26;10.85;;;6.82;;
19343;SDS011;9808;52.402;16.678;2022-09-13T11:54:42;12.50;;;7.85;;
19343;SDS011;9808;52.402;16.678;2022-09-13T11:57:31;11.55;;;7.75;;
19343;SDS011;9808;52.402;16.678;2022-09-13T12:00:05;14.70;;;9.20;;
19343;SDS011;9808;52.402;16.678;2022-09-13T12:05:53;11.23;;;8.00;;
19343;SDS011;9808;52.402;16.678;2022-09-13T12:08:30;13.38;;;7.65;;
19343;SDS011;9808;52.402;16.678;2022-09-13T12:11:12;12.75;;;8.40;;
19343;SDS011;9808;52.402;16.678;2022-09-13T12:13:53;11.27;;;7.35;;
19343;SDS011;9808;52.402;16.678;2022-09-13T12:16:33;14.43;;;7.90;;
19343;SDS011;9808;52.402;16.678;2022-09-13T12:19:14;13.05;;;8.60;;
19343;SDS011;9808;52.402;16.678;2022-09-13T12:22:25;12.35;;;8.45;;
19343;SDS011;9808;52.402;16.678;2022-09-13T12:25:03;14.93;;;8.13;;
19343;SDS011;9808;52.402;16.678;2022-09-13T12:30:43;15.23;;;7.78;;
19343;SDS011;9808;52.402;16.678;2022-09-13T12:33:17;12.45;;;7.95;;
19343;SDS011;9808;52.402;16.678;2022-09-13T12:44:30;15.35;;;8.82;;
19343;SDS011;9808;52.402;16.678;2022-09-13T12:47:29;13.10;;;8.35;;
19343;SDS011;9808;52.402;16.678;2022-09-13T12:50:06;15.93;;;8.15;;
19343;SDS011;9808;52.402;16.678;2022-09-13T12:53:23;15.88;;;8.95;;
19343;SDS011;9808;52.402;16.678;2022-09-13T13:02:02;10.02;;;6.30;;
19343;SDS011;9808;52.402;16.678;2022-09-13T13:04:49;9.73;;;6.15;;
19343;SDS011;9808;52.402;16.678;2022-09-13T13:07:21;10.38;;;5.82;;
19343;SDS011;9808;52.402;16.678;2022-09-13T13:09:50;12.45;;;6.93;;
19343;SDS011;9808;52.402;16.678;2022-09-13T13:12:36;14.25;;;6.70;;
19343;SDS011;9808;52.402;16.678;2022-09-13T13:23:31;10.25;;;5.38;;
19343;SDS011;9808;52.402;16.678;2022-09-13T13:26:10;11.50;;;6.22;;
19343;SDS011;9808;52.402;16.678;2022-09-13T13:28:51;10.48;;;6.30;;
19343;SDS011;9808;52.402;16.678;2022-09-13T13:31:34;10.57;;;5.97;;
19343;SDS011;9808;52.402;16.678;2022-09-13T13:36:43;8.75;;;6.47;;
19343;SDS011;9808;52.402;16.678;2022-09-13T13:41:56;10.48;;;7.25;;
19343;SDS011;9808;52.402;16.678;2022-09-13T13:57:25;9.23;;;5.63;;
19343;SDS011;9808;52.402;16.678;2022-09-13T14:00:10;8.18;;;5.55;;
19343;SDS011;9808;52.402;16.678;2022-09-13T14:10:58;8.65;;;5.80;;
19343;SDS011;9808;52.402;16.678;2022-09-13T14:19:27;11.07;;;5.55;;
19343;SDS011;9808;52.402;16.678;2022-09-13T14:24:48;10.88;;;5.20;;
19343;SDS011;9808;52.402;16.678;2022-09-13T14:27:17;12.32;;;6.90;;
19343;SDS011;9808;52.402;16.678;2022-09-13T14:29:50;12.25;;;5.88;;
19343;SDS011;9808;52.402;16.678;2022-09-13T14:32:20;10.60;;;5.65;;
19343;SDS011;9808;52.402;16.678;2022-09-13T14:37:33;9.45;;;6.07;;
19343;SDS011;9808;52.402;16.678;2022-09-13T14:42:38;11.05;;;7.00;;
19343;SDS011;9808;52.402;16.678;2022-09-13T14:45:14;9.98;;;7.22;;
19343;SDS011;9808;52.402;16.678;2022-09-13T14:48:06;8.55;;;6.00;;
19343;SDS011;9808;52.402;16.678;2022-09-13T14:50:34;12.13;;;6.22;;
19343;SDS011;9808;52.402;16.678;2022-09-13T14:53:06;9.25;;;6.25;;
19343;SDS011;9808;52.402;16.678;2022-09-13T14:55:41;8.68;;;6.35;;
19343;SDS011;9808;52.402;16.678;2022-09-13T14:58:36;11.65;;;7.13;;
19343;SDS011;9808;52.402;16.678;2022-09-13T15:01:14;9.73;;;6.28;;
19343;SDS011;9808;52.402;16.678;2022-09-13T15:03:45;10.10;;;7.25;;
19343;SDS011;9808;52.402;16.678;2022-09-13T15:06:21;10.45;;;6.95;;
19343;SDS011;9808;52.402;16.678;2022-09-13T15:08:50;9.88;;;6.38;;
19343;SDS011;9808;52.402;16.678;2022-09-13T15:13:59;10.48;;;6.70;;
19343;SDS011;9808;52.402;16.678;2022-09-13T15:24:53;9.52;;;5.85;;
19343;SDS011;9808;52.402;16.678;2022-09-13T15:30:26;12.15;;;6.10;;
19343;SDS011;9808;52.402;16.678;2022-09-13T15:40:44;10.05;;;7.10;;
19343;SDS011;9808;52.402;16.678;2022-09-13T15:43:13;13.00;;;7.13;;
19343;SDS011;9808;52.402;16.678;2022-09-13T15:45:40;13.15;;;7.47;;
19343;SDS011;9808;52.402;16.678;2022-09-13T15:48:06;13.25;;;8.18;;
19343;SDS011;9808;52.402;16.678;2022-09-13T15:50:40;10.50;;;7.47;;
19343;SDS011;9808;52.402;16.678;2022-09-13T15:53:08;13.32;;;9.18;;
19343;SDS011;9808;52.402;16.678;2022-09-13T15:55:37;12.30;;;8.38;;
19343;SDS011;9808;52.402;16.678;2022-09-13T15:58:05;11.60;;;7.72;;
19343;SDS011;9808;52.402;16.678;2022-09-13T16:00:31;15.00;;;7.85;;
19343;SDS011;9808;52.402;16.678;2022-09-13T16:02:58;12.23;;;7.55;;
19343;SDS011;9808;52.402;16.678;2022-09-13T16:05:25;13.70;;;7.57;;
19343;SDS011;9808;52.402;16.678;2022-09-13T16:07:52;12.77;;;8.02;;
19343;SDS011;9808;52.402;16.678;2022-09-13T16:10:20;14.10;;;8.02;;
19343;SDS011;9808;52.402;16.678;2022-09-13T16:12:48;11.82;;;7.53;;
19343;SDS011;9808;52.402;16.678;2022-09-13T16:15:16;11.27;;;7.68;;
19343;SDS011;9808;52.402;16.678;2022-09-13T16:17:44;11.82;;;7.38;;
19343;SDS011;9808;52.402;16.678;2022-09-13T16:20:12;11.07;;;7.75;;
19343;SDS011;9808;52.402;16.678;2022-09-13T16:22:40;13.32;;;8.00;;
19343;SDS011;9808;52.402;16.678;2022-09-13T16:25:08;13.75;;;7.72;;
19343;SDS011;9808;52.402;16.678;2022-09-13T16:27:38;10.77;;;8.00;;
19343;SDS011;9808;52.402;16.678;2022-09-13T16:30:05;13.77;;;9.07;;
19343;SDS011;9808;52.402;16.678;2022-09-13T16:32:33;13.15;;;8.80;;
19343;SDS011;9808;52.402;16.678;2022-09-13T16:34:59;12.30;;;8.80;;
19343;SDS011;9808;52.402;16.678;2022-09-13T16:37:26;13.05;;;9.40;;
19343;SDS011;9808;52.402;16.678;2022-09-13T16:39:56;11.80;;;8.38;;
19343;SDS011;9808;52.402;16.678;2022-09-13T16:42:25;14.95;;;10.20;;
19343;SDS011;9808;52.402;16.678;2022-09-13T16:44:52;13.93;;;9.45;;
19343;SDS011;9808;52.402;16.678;2022-09-13T16:47:19;15.60;;;9.95;;
19343;SDS011;9808;52.402;16.678;2022-09-13T16:49:46;17.02;;;10.85;;
19343;SDS011;9808;52.402;16.678;2022-09-13T16:52:13;15.30;;;10.30;;
19343;SDS011;9808;52.402;16.678;2022-09-13T16:54:39;16.67;;;10.95;;
19343;SDS011;9808;52.402;16.678;2022-09-13T16:57:07;15.75;;;11.20;;
19343;SDS011;9808;52.402;16.678;2022-09-13T16:59:35;14.90;;;10.18;;
19343;SDS011;9808;52.402;16.678;2022-09-13T17:02:02;13.77;;;10.50;;
19343;SDS011;9808;52.402;16.678;2022-09-13T17:04:29;16.45;;;11.27;;
19343;SDS011;9808;52.402;16.678;2022-09-13T17:06:56;14.57;;;10.63;;
19343;SDS011;9808;52.402;16.678;2022-09-13T17:09:24;16.38;;;11.10;;
19343;SDS011;9808;52.402;16.678;2022-09-13T17:11:53;16.00;;;10.80;;
19343;SDS011;9808;52.402;16.678;2022-09-13T17:14:20;18.55;;;11.57;;
19343;SDS011;9808;52.402;16.678;2022-09-13T17:16:52;14.85;;;10.95;;
19343;SDS011;9808;52.402;16.678;2022-09-13T17:19:21;14.38;;;11.15;;
19343;SDS011;9808;52.402;16.678;2022-09-13T17:21:51;14.48;;;10.80;;
19343;SDS011;9808;52.402;16.678;2022-09-13T17:24:19;17.63;;;11.07;;
19343;SDS011;9808;52.402;16.678;2022-09-13T17:26:47;16.50;;;10.93;;
19343;SDS011;9808;52.402;16.678;2022-09-13T17:29:14;18.30;;;11.57;;
19343;SDS011;9808;52.402;16.678;2022-09-13T17:31:41;16.80;;;11.43;;
19343;SDS011;9808;52.402;16.678;2022-09-13T17:34:09;17.63;;;12.30;;
19343;SDS011;9808;52.402;16.678;2022-09-13T17:36:39;20.98;;;13.00;;
19343;SDS011;9808;52.402;16.678;2022-09-13T17:39:07;28.20;;;14.90;;
19343;SDS011;9808;52.402;16.678;2022-09-13T17:41:35;36.35;;;16.60;;
19343;SDS011;9808;52.402;16.678;2022-09-13T17:44:03;36.67;;;19.10;;
19343;SDS011;9808;52.402;16.678;2022-09-13T17:46:30;37.85;;;18.77;;
19343;SDS011;9808;52.402;16.678;2022-09-13T17:48:58;36.40;;;16.63;;
19343;SDS011;9808;52.402;16.678;2022-09-13T17:51:28;38.83;;;16.50;;
19343;SDS011;9808;52.402;16.678;2022-09-13T17:53:58;32.95;;;16.40;;
19343;SDS011;9808;52.402;16.678;2022-09-13T17:56:32;31.02;;;14.57;;
19343;SDS011;9808;52.402;16.678;2022-09-13T17:59:06;26.38;;;14.23;;
19343;SDS011;9808;52.402;16.678;2022-09-13T18:01:47;23.42;;;14.02;;
19343;SDS011;9808;52.402;16.678;2022-09-13T18:04:17;18.08;;;12.45;;
19343;SDS011;9808;52.402;16.678;2022-09-13T18:06:46;17.65;;;11.75;;
19343;SDS011;9808;52.402;16.678;2022-09-13T18:09:16;19.35;;;12.45;;
19343;SDS011;9808;52.402;16.678;2022-09-13T18:11:43;19.67;;;12.70;;
19343;SDS011;9808;52.402;16.678;2022-09-13T18:14:11;20.60;;;13.02;;
19343;SDS011;9808;52.402;16.678;2022-09-13T18:16:41;16.92;;;12.20;;
19343;SDS011;9808;52.402;16.678;2022-09-13T18:19:09;17.90;;;12.50;;
19343;SDS011;9808;52.402;16.678;2022-09-13T18:21:37;26.70;;;14.13;;
19343;SDS011;9808;52.402;16.678;2022-09-13T18:24:05;26.98;;;15.50;;
19343;SDS011;9808;52.402;16.678;2022-09-13T18:26:33;23.17;;;15.10;;
19343;SDS011;9808;52.402;16.678;2022-09-13T18:29:05;23.23;;;14.20;;
19343;SDS011;9808;52.402;16.678;2022-09-13T18:31:36;21.95;;;13.95;;
19343;SDS011;9808;52.402;16.678;2022-09-13T18:34:11;20.65;;;13.60;;
19343;SDS011;9808;52.402;16.678;2022-09-13T18:36:40;22.73;;;15.15;;